sensor_id;sensor_type;location;lat;lon;timestamp;P1;durP1;ratioP1;P2;durP2;ratioP2
70420;SDS011;57848;51.938;15.520;2023-04-03T00:02:08;6.10;;;1.30;;
70420;SDS011;57848;51.938;15.520;2023-04-03T00:04:33;6.43;;;1.37;;
70420;SDS011;57848;51.938;15.520;2023-04-03T00:07:00;6.03;;;1.70;;
70420;SDS011;57848;51.938;15.520;2023-04-03T00:09:25;5.97;;;1.07;;
70420;SDS011;57848;51.938;15.520;2023-04-03T00:11:51;8.82;;;1.40;;
70420;SDS011;57848;51.938;15.520;2023-04-03T00:14:16;7.40;;;1.40;;
70420;SDS011;57848;51.938;15.520;2023-04-03T00:16:42;5.77;;;1.30;;
70420;SDS011;57848;51.938;15.520;2023-04-03T00:19:07;6.93;;;1.23;;
70420;SDS011;57848;51.938;15.520;2023-04-03T00:21:33;6.28;;;1.27;;
70420;SDS011;57848;51.938;15.520;2023-04-03T00:23:58;7.17;;;1.93;;
70420;SDS011;57848;51.938;15.520;2023-04-03T00:26:24;5.60;;;1.30;;
70420;SDS011;57848;51.938;15.520;2023-04-03T00:28:49;6.53;;;1.80;;
70420;SDS011;57848;51.938;15.520;2023-04-03T00:31:15;7.80;;;1.60;;
70420;SDS011;57848;51.938;15.520;2023-04-03T00:33:41;7.85;;;1.70;;
70420;SDS011;57848;51.938;15.520;2023-04-03T00:36:08;10.20;;;1.53;;
70420;SDS011;57848;51.938;15.520;2023-04-03T00:38:34;4.93;;;0.90;;
70420;SDS011;57848;51.938;15.520;2023-04-03T00:41:00;7.10;;;1.37;;
70420;SDS011;57848;51.938;15.520;2023-04-03T00:43:26;5.80;;;1.47;;
70420;SDS011;57848;51.938;15.520;2023-04-03T00:45:53;6.88;;;1.42;;
70420;SDS011;57848;51.938;15.520;2023-04-03T00:48:20;9.10;;;1.30;;
70420;SDS011;57848;51.938;15.520;2023-04-03T00:51:14;6.30;;;1.13;;
70420;SDS011;57848;51.938;15.520;2023-04-03T00:53:44;4.43;;;1.15;;
70420;SDS011;57848;51.938;15.520;2023-04-03T00:56:15;7.10;;;1.15;;
70420;SDS011;57848;51.938;15.520;2023-04-03T00:58:44;7.68;;;1.38;;
70420;SDS011;57848;51.938;15.520;2023-04-03T01:01:15;8.87;;;1.40;;
70420;SDS011;57848;51.938;15.520;2023-04-03T01:03:43;6.78;;;1.50;;
70420;SDS011;57848;51.938;15.520;2023-04-03T01:06:09;6.53;;;1.10;;
70420;SDS011;57848;51.938;15.520;2023-04-03T01:08:35;9.53;;;1.50;;
70420;SDS011;57848;51.938;15.520;2023-04-03T01:11:00;5.85;;;1.45;;
70420;SDS011;57848;51.938;15.520;2023-04-03T01:13:27;7.03;;;1.30;;
70420;SDS011;57848;51.938;15.520;2023-04-03T01:15:55;7.93;;;1.20;;
70420;SDS011;57848;51.938;15.520;2023-04-03T01:18:24;7.38;;;1.38;;
70420;SDS011;57848;51.938;15.520;2023-04-03T01:21:03;7.45;;;1.60;;
70420;SDS011;57848;51.938;15.520;2023-04-03T01:23:37;7.82;;;1.58;;
70420;SDS011;57848;51.938;15.520;2023-04-03T01:26:03;10.77;;;1.37;;
70420;SDS011;57848;51.938;15.520;2023-04-03T01:28:30;5.28;;;1.27;;
70420;SDS011;57848;51.938;15.520;2023-04-03T01:31:03;5.60;;;1.38;;
70420;SDS011;57848;51.938;15.520;2023-04-03T01:33:35;5.43;;;0.70;;
70420;SDS011;57848;51.938;15.520;2023-04-03T01:36:00;7.28;;;1.27;;
70420;SDS011;57848;51.938;15.520;2023-04-03T01:38:27;6.10;;;1.23;;
70420;SDS011;57848;51.938;15.520;2023-04-03T01:40:53;7.90;;;1.87;;
70420;SDS011;57848;51.938;15.520;2023-04-03T01:43:18;6.80;;;1.50;;
70420;SDS011;57848;51.938;15.520;2023-04-03T01:45:44;7.18;;;1.42;;
70420;SDS011;57848;51.938;15.520;2023-04-03T01:48:11;5.55;;;1.23;;
70420;SDS011;57848;51.938;15.520;2023-04-03T01:50:37;5.70;;;1.15;;
70420;SDS011;57848;51.938;15.520;2023-04-03T01:53:02;5.60;;;1.10;;
70420;SDS011;57848;51.938;15.520;2023-04-03T01:55:28;5.00;;;1.30;;
70420;SDS011;57848;51.938;15.520;2023-04-03T01:57:53;10.33;;;1.40;;
70420;SDS011;57848;51.938;15.520;2023-04-03T02:00:19;8.65;;;2.30;;
70420;SDS011;57848;51.938;15.520;2023-04-03T02:02:44;5.03;;;1.10;;
70420;SDS011;57848;51.938;15.520;2023-04-03T02:05:10;7.68;;;1.33;;
70420;SDS011;57848;51.938;15.520;2023-04-03T02:07:35;7.27;;;1.20;;
70420;SDS011;57848;51.938;15.520;2023-04-03T02:10:01;5.77;;;1.43;;
70420;SDS011;57848;51.938;15.520;2023-04-03T02:12:26;8.37;;;1.37;;
70420;SDS011;57848;51.938;15.520;2023-04-03T02:14:51;8.90;;;1.50;;
70420;SDS011;57848;51.938;15.520;2023-04-03T02:17:17;7.65;;;1.63;;
70420;SDS011;57848;51.938;15.520;2023-04-03T02:19:42;8.60;;;1.63;;
70420;SDS011;57848;51.938;15.520;2023-04-03T02:22:08;8.87;;;1.40;;
70420;SDS011;57848;51.938;15.520;2023-04-03T02:24:34;9.05;;;1.42;;
70420;SDS011;57848;51.938;15.520;2023-04-03T02:26:59;9.17;;;2.00;;
70420;SDS011;57848;51.938;15.520;2023-04-03T02:29:25;5.60;;;1.00;;
70420;SDS011;57848;51.938;15.520;2023-04-03T02:31:51;6.35;;;1.30;;
70420;SDS011;57848;51.938;15.520;2023-04-03T02:34:17;7.13;;;1.20;;
70420;SDS011;57848;51.938;15.520;2023-04-03T02:36:43;8.05;;;1.48;;
70420;SDS011;57848;51.938;15.520;2023-04-03T02:39:10;7.15;;;1.10;;
70420;SDS011;57848;51.938;15.520;2023-04-03T02:41:36;5.20;;;1.30;;
70420;SDS011;57848;51.938;15.520;2023-04-03T02:44:08;8.20;;;1.13;;
70420;SDS011;57848;51.938;15.520;2023-04-03T02:46:35;6.38;;;1.08;;
70420;SDS011;57848;51.938;15.520;2023-04-03T02:49:01;4.53;;;1.00;;
70420;SDS011;57848;51.938;15.520;2023-04-03T02:51:27;6.38;;;1.10;;
70420;SDS011;57848;51.938;15.520;2023-04-03T02:53:53;4.30;;;1.00;;
70420;SDS011;57848;51.938;15.520;2023-04-03T02:56:22;9.30;;;0.90;;
70420;SDS011;57848;51.938;15.520;2023-04-03T02:58:47;8.20;;;1.40;;
70420;SDS011;57848;51.938;15.520;2023-04-03T03:01:15;8.85;;;1.08;;
70420;SDS011;57848;51.938;15.520;2023-04-03T03:03:40;4.80;;;0.87;;
70420;SDS011;57848;51.938;15.520;2023-04-03T03:06:12;5.30;;;1.17;;
70420;SDS011;57848;51.938;15.520;2023-04-03T03:08:40;7.38;;;1.23;;
70420;SDS011;57848;51.938;15.520;2023-04-03T03:11:06;6.82;;;1.20;;
70420;SDS011;57848;51.938;15.520;2023-04-03T03:13:32;6.80;;;1.00;;
70420;SDS011;57848;51.938;15.520;2023-04-03T03:15:58;7.95;;;1.20;;
70420;SDS011;57848;51.938;15.520;2023-04-03T03:18:23;5.68;;;1.02;;
70420;SDS011;57848;51.938;15.520;2023-04-03T03:20:53;11.13;;;1.10;;
70420;SDS011;57848;51.938;15.520;2023-04-03T03:23:20;5.78;;;1.20;;
70420;SDS011;57848;51.938;15.520;2023-04-03T03:25:46;6.28;;;0.82;;
70420;SDS011;57848;51.938;15.520;2023-04-03T03:28:12;4.33;;;0.90;;
70420;SDS011;57848;51.938;15.520;2023-04-03T03:30:38;6.90;;;1.20;;
70420;SDS011;57848;51.938;15.520;2023-04-03T03:33:03;7.83;;;1.47;;
70420;SDS011;57848;51.938;15.520;2023-04-03T03:35:29;6.63;;;1.20;;
70420;SDS011;57848;51.938;15.520;2023-04-03T03:37:54;10.07;;;1.97;;
70420;SDS011;57848;51.938;15.520;2023-04-03T03:40:20;6.10;;;1.10;;
70420;SDS011;57848;51.938;15.520;2023-04-03T03:42:45;4.67;;;0.93;;
70420;SDS011;57848;51.938;15.520;2023-04-03T03:45:11;6.97;;;1.02;;
70420;SDS011;57848;51.938;15.520;2023-04-03T03:47:36;4.97;;;0.97;;
70420;SDS011;57848;51.938;15.520;2023-04-03T03:50:03;9.05;;;1.10;;
70420;SDS011;57848;51.938;15.520;2023-04-03T03:52:29;6.43;;;1.30;;
70420;SDS011;57848;51.938;15.520;2023-04-03T03:54:55;6.90;;;1.00;;
70420;SDS011;57848;51.938;15.520;2023-04-03T03:57:21;8.68;;;1.20;;
70420;SDS011;57848;51.938;15.520;2023-04-03T03:59:46;6.73;;;1.13;;
70420;SDS011;57848;51.938;15.520;2023-04-03T04:02:15;6.88;;;0.90;;
70420;SDS011;57848;51.938;15.520;2023-04-03T04:04:41;6.32;;;0.90;;
70420;SDS011;57848;51.938;15.520;2023-04-03T04:07:06;10.60;;;1.47;;
70420;SDS011;57848;51.938;15.520;2023-04-03T04:09:33;8.35;;;1.40;;
70420;SDS011;57848;51.938;15.520;2023-04-03T04:11:58;6.90;;;1.23;;
70420;SDS011;57848;51.938;15.520;2023-04-03T04:14:24;6.00;;;1.27;;
70420;SDS011;57848;51.938;15.520;2023-04-03T04:16:51;6.95;;;0.82;;
70420;SDS011;57848;51.938;15.520;2023-04-03T04:19:21;5.15;;;1.02;;
70420;SDS011;57848;51.938;15.520;2023-04-03T04:21:47;4.53;;;1.00;;
70420;SDS011;57848;51.938;15.520;2023-04-03T04:24:13;12.27;;;1.30;;
70420;SDS011;57848;51.938;15.520;2023-04-03T04:26:39;11.38;;;1.90;;
70420;SDS011;57848;51.938;15.520;2023-04-03T04:29:06;6.83;;;1.10;;
70420;SDS011;57848;51.938;15.520;2023-04-03T04:31:34;5.60;;;1.15;;
70420;SDS011;57848;51.938;15.520;2023-04-03T04:33:59;5.73;;;1.20;;
70420;SDS011;57848;51.938;15.520;2023-04-03T04:36:25;5.10;;;1.55;;
70420;SDS011;57848;51.938;15.520;2023-04-03T04:38:50;8.13;;;1.07;;
70420;SDS011;57848;51.938;15.520;2023-04-03T04:41:19;7.38;;;1.35;;
70420;SDS011;57848;51.938;15.520;2023-04-03T04:43:48;4.95;;;0.93;;
70420;SDS011;57848;51.938;15.520;2023-04-03T04:46:14;7.38;;;1.40;;
70420;SDS011;57848;51.938;15.520;2023-04-03T04:48:45;10.70;;;1.63;;
70420;SDS011;57848;51.938;15.520;2023-04-03T04:51:11;8.23;;;1.23;;
70420;SDS011;57848;51.938;15.520;2023-04-03T04:53:37;6.43;;;1.30;;
70420;SDS011;57848;51.938;15.520;2023-04-03T04:56:03;8.82;;;1.70;;
70420;SDS011;57848;51.938;15.520;2023-04-03T04:58:30;11.65;;;2.20;;
70420;SDS011;57848;51.938;15.520;2023-04-03T05:03:26;10.00;;;2.03;;
70420;SDS011;57848;51.938;15.520;2023-04-03T05:05:52;7.70;;;1.77;;
70420;SDS011;57848;51.938;15.520;2023-04-03T05:08:17;11.35;;;2.80;;
70420;SDS011;57848;51.938;15.520;2023-04-03T05:10:44;11.57;;;2.70;;
70420;SDS011;57848;51.938;15.520;2023-04-03T05:13:11;11.02;;;1.95;;
70420;SDS011;57848;51.938;15.520;2023-04-03T05:15:36;10.63;;;2.40;;
70420;SDS011;57848;51.938;15.520;2023-04-03T05:18:02;7.25;;;1.67;;
70420;SDS011;57848;51.938;15.520;2023-04-03T05:20:28;7.07;;;1.93;;
70420;SDS011;57848;51.938;15.520;2023-04-03T05:22:53;8.30;;;2.35;;
70420;SDS011;57848;51.938;15.520;2023-04-03T05:25:19;13.97;;;4.10;;
70420;SDS011;57848;51.938;15.520;2023-04-03T05:27:44;7.37;;;1.90;;
70420;SDS011;57848;51.938;15.520;2023-04-03T05:30:10;7.18;;;2.30;;
70420;SDS011;57848;51.938;15.520;2023-04-03T05:32:38;8.00;;;2.25;;
70420;SDS011;57848;51.938;15.520;2023-04-03T05:35:24;6.97;;;1.70;;
70420;SDS011;57848;51.938;15.520;2023-04-03T05:37:53;6.30;;;1.40;;
70420;SDS011;57848;51.938;15.520;2023-04-03T05:40:18;9.70;;;2.37;;
70420;SDS011;57848;51.938;15.520;2023-04-03T05:42:46;10.05;;;2.70;;
70420;SDS011;57848;51.938;15.520;2023-04-03T05:45:13;7.45;;;1.60;;
70420;SDS011;57848;51.938;15.520;2023-04-03T05:47:38;5.40;;;1.40;;
70420;SDS011;57848;51.938;15.520;2023-04-03T05:50:05;6.03;;;1.30;;
70420;SDS011;57848;51.938;15.520;2023-04-03T05:52:36;8.70;;;1.85;;
70420;SDS011;57848;51.938;15.520;2023-04-03T05:55:03;8.50;;;1.70;;
70420;SDS011;57848;51.938;15.520;2023-04-03T05:57:32;9.18;;;1.80;;
70420;SDS011;57848;51.938;15.520;2023-04-03T05:59:58;6.53;;;1.60;;
70420;SDS011;57848;51.938;15.520;2023-04-03T06:02:24;6.60;;;1.50;;
70420;SDS011;57848;51.938;15.520;2023-04-03T06:04:51;8.67;;;1.57;;
70420;SDS011;57848;51.938;15.520;2023-04-03T06:07:19;7.13;;;1.70;;
70420;SDS011;57848;51.938;15.520;2023-04-03T06:09:48;14.93;;;4.40;;
70420;SDS011;57848;51.938;15.520;2023-04-03T06:12:16;7.80;;;1.42;;
70420;SDS011;57848;51.938;15.520;2023-04-03T06:14:42;9.57;;;1.75;;
70420;SDS011;57848;51.938;15.520;2023-04-03T06:17:08;7.93;;;1.80;;
70420;SDS011;57848;51.938;15.520;2023-04-03T06:19:34;8.98;;;1.85;;
70420;SDS011;57848;51.938;15.520;2023-04-03T06:22:00;5.72;;;1.35;;
70420;SDS011;57848;51.938;15.520;2023-04-03T06:24:26;11.63;;;1.80;;
70420;SDS011;57848;51.938;15.520;2023-04-03T06:26:52;8.23;;;2.00;;
70420;SDS011;57848;51.938;15.520;2023-04-03T06:29:18;8.47;;;2.17;;
70420;SDS011;57848;51.938;15.520;2023-04-03T06:31:44;10.75;;;2.60;;
70420;SDS011;57848;51.938;15.520;2023-04-03T06:34:10;7.85;;;2.00;;
70420;SDS011;57848;51.938;15.520;2023-04-03T06:36:37;7.15;;;2.08;;
70420;SDS011;57848;51.938;15.520;2023-04-03T06:39:02;9.57;;;1.60;;
70420;SDS011;57848;51.938;15.520;2023-04-03T06:41:28;8.43;;;1.73;;
70420;SDS011;57848;51.938;15.520;2023-04-03T06:43:53;7.23;;;1.90;;
70420;SDS011;57848;51.938;15.520;2023-04-03T06:46:21;8.93;;;1.60;;
70420;SDS011;57848;51.938;15.520;2023-04-03T06:48:49;10.07;;;1.98;;
70420;SDS011;57848;51.938;15.520;2023-04-03T06:51:16;13.67;;;1.80;;
70420;SDS011;57848;51.938;15.520;2023-04-03T06:53:44;9.27;;;1.48;;
70420;SDS011;57848;51.938;15.520;2023-04-03T06:56:10;7.05;;;1.10;;
70420;SDS011;57848;51.938;15.520;2023-04-03T06:58:36;8.70;;;1.70;;
70420;SDS011;57848;51.938;15.520;2023-04-03T07:01:02;9.57;;;2.13;;
70420;SDS011;57848;51.938;15.520;2023-04-03T07:03:27;6.63;;;1.97;;
70420;SDS011;57848;51.938;15.520;2023-04-03T07:05:53;10.23;;;1.33;;
70420;SDS011;57848;51.938;15.520;2023-04-03T07:08:18;5.50;;;1.20;;
70420;SDS011;57848;51.938;15.520;2023-04-03T07:10:44;9.33;;;1.50;;
70420;SDS011;57848;51.938;15.520;2023-04-03T07:13:09;8.40;;;1.53;;
70420;SDS011;57848;51.938;15.520;2023-04-03T07:15:34;7.37;;;1.20;;
70420;SDS011;57848;51.938;15.520;2023-04-03T07:18:01;5.13;;;1.30;;
70420;SDS011;57848;51.938;15.520;2023-04-03T07:20:26;6.47;;;1.20;;
70420;SDS011;57848;51.938;15.520;2023-04-03T07:22:52;7.10;;;1.23;;
70420;SDS011;57848;51.938;15.520;2023-04-03T07:25:17;7.77;;;1.00;;
70420;SDS011;57848;51.938;15.520;2023-04-03T07:27:42;9.73;;;1.20;;
70420;SDS011;57848;51.938;15.520;2023-04-03T07:30:08;8.13;;;2.00;;
70420;SDS011;57848;51.938;15.520;2023-04-03T07:32:34;8.52;;;1.58;;
70420;SDS011;57848;51.938;15.520;2023-04-03T07:35:00;6.85;;;1.40;;
70420;SDS011;57848;51.938;15.520;2023-04-03T07:37:25;6.13;;;1.40;;
70420;SDS011;57848;51.938;15.520;2023-04-03T07:39:51;12.93;;;1.50;;
70420;SDS011;57848;51.938;15.520;2023-04-03T07:42:16;4.80;;;1.40;;
70420;SDS011;57848;51.938;15.520;2023-04-03T07:44:42;8.17;;;1.43;;
70420;SDS011;57848;51.938;15.520;2023-04-03T07:47:07;7.03;;;1.30;;
70420;SDS011;57848;51.938;15.520;2023-04-03T07:49:33;7.30;;;1.25;;
70420;SDS011;57848;51.938;15.520;2023-04-03T07:51:59;7.38;;;1.83;;
70420;SDS011;57848;51.938;15.520;2023-04-03T07:54:25;6.10;;;1.80;;
70420;SDS011;57848;51.938;15.520;2023-04-03T07:56:50;11.43;;;2.33;;
70420;SDS011;57848;51.938;15.520;2023-04-03T07:59:16;5.37;;;1.20;;
70420;SDS011;57848;51.938;15.520;2023-04-03T08:01:41;6.55;;;1.20;;
70420;SDS011;57848;51.938;15.520;2023-04-03T08:04:07;8.23;;;1.43;;
70420;SDS011;57848;51.938;15.520;2023-04-03T08:06:32;5.53;;;1.13;;
70420;SDS011;57848;51.938;15.520;2023-04-03T08:09:00;4.70;;;1.05;;
70420;SDS011;57848;51.938;15.520;2023-04-03T08:11:27;9.07;;;1.20;;
70420;SDS011;57848;51.938;15.520;2023-04-03T08:13:53;5.45;;;1.08;;
70420;SDS011;57848;51.938;15.520;2023-04-03T08:16:20;6.90;;;1.27;;
70420;SDS011;57848;51.938;15.520;2023-04-03T08:18:46;6.97;;;1.60;;
70420;SDS011;57848;51.938;15.520;2023-04-03T08:21:12;6.23;;;1.00;;
70420;SDS011;57848;51.938;15.520;2023-04-03T08:23:38;11.20;;;2.30;;
70420;SDS011;57848;51.938;15.520;2023-04-03T08:26:10;7.13;;;1.55;;
70420;SDS011;57848;51.938;15.520;2023-04-03T08:28:40;7.07;;;1.10;;
70420;SDS011;57848;51.938;15.520;2023-04-03T08:31:07;6.30;;;1.38;;
70420;SDS011;57848;51.938;15.520;2023-04-03T08:33:37;5.20;;;1.23;;
70420;SDS011;57848;51.938;15.520;2023-04-03T08:36:04;7.43;;;1.10;;
70420;SDS011;57848;51.938;15.520;2023-04-03T08:38:31;5.78;;;1.40;;
70420;SDS011;57848;51.938;15.520;2023-04-03T08:41:04;5.22;;;1.08;;
70420;SDS011;57848;51.938;15.520;2023-04-03T08:46:18;6.43;;;1.20;;
70420;SDS011;57848;51.938;15.520;2023-04-03T08:48:47;5.25;;;0.93;;
70420;SDS011;57848;51.938;15.520;2023-04-03T08:51:16;6.40;;;0.95;;
70420;SDS011;57848;51.938;15.520;2023-04-03T08:56:33;5.72;;;0.98;;
70420;SDS011;57848;51.938;15.520;2023-04-03T08:59:00;6.53;;;1.27;;
70420;SDS011;57848;51.938;15.520;2023-04-03T09:04:05;6.13;;;1.00;;
70420;SDS011;57848;51.938;15.520;2023-04-03T09:06:38;5.80;;;1.23;;
70420;SDS011;57848;51.938;15.520;2023-04-03T09:09:13;6.78;;;1.35;;
70420;SDS011;57848;51.938;15.520;2023-04-03T09:11:50;5.97;;;1.30;;
70420;SDS011;57848;51.938;15.520;2023-04-03T09:20:17;7.45;;;1.30;;
70420;SDS011;57848;51.938;15.520;2023-04-03T09:22:51;5.72;;;1.13;;
70420;SDS011;57848;51.938;15.520;2023-04-03T09:25:27;4.07;;;0.97;;
70420;SDS011;57848;51.938;15.520;2023-04-03T09:27:59;4.85;;;1.27;;
70420;SDS011;57848;51.938;15.520;2023-04-03T09:30:26;5.95;;;1.25;;
70420;SDS011;57848;51.938;15.520;2023-04-03T09:32:54;7.53;;;1.48;;
70420;SDS011;57848;51.938;15.520;2023-04-03T09:37:51;4.83;;;0.93;;
70420;SDS011;57848;51.938;15.520;2023-04-03T09:45:42;5.03;;;1.13;;
70420;SDS011;57848;51.938;15.520;2023-04-03T09:50:37;5.40;;;1.20;;
70420;SDS011;57848;51.938;15.520;2023-04-03T09:53:05;6.30;;;1.20;;
70420;SDS011;57848;51.938;15.520;2023-04-03T09:55:32;5.50;;;1.10;;
70420;SDS011;57848;51.938;15.520;2023-04-03T09:58:11;8.02;;;1.10;;
70420;SDS011;57848;51.938;15.520;2023-04-03T10:00:54;8.48;;;1.45;;
70420;SDS011;57848;51.938;15.520;2023-04-03T10:03:26;5.33;;;1.20;;
70420;SDS011;57848;51.938;15.520;2023-04-03T10:05:54;6.00;;;1.50;;
70420;SDS011;57848;51.938;15.520;2023-04-03T10:08:28;6.03;;;1.30;;
70420;SDS011;57848;51.938;15.520;2023-04-03T10:11:08;7.28;;;1.83;;
70420;SDS011;57848;51.938;15.520;2023-04-03T10:13:35;8.43;;;1.80;;
70420;SDS011;57848;51.938;15.520;2023-04-03T10:16:06;7.90;;;1.50;;
70420;SDS011;57848;51.938;15.520;2023-04-03T10:21:10;5.38;;;1.33;;
70420;SDS011;57848;51.938;15.520;2023-04-03T10:24:03;6.47;;;1.40;;
70420;SDS011;57848;51.938;15.520;2023-04-03T10:32:06;5.50;;;1.42;;
70420;SDS011;57848;51.938;15.520;2023-04-03T10:37:55;5.30;;;1.37;;
70420;SDS011;57848;51.938;15.520;2023-04-03T10:40:36;8.10;;;2.00;;
70420;SDS011;57848;51.938;15.520;2023-04-03T10:43:16;7.95;;;2.10;;
70420;SDS011;57848;51.938;15.520;2023-04-03T10:48:49;7.25;;;1.70;;
70420;SDS011;57848;51.938;15.520;2023-04-03T10:51:34;5.27;;;1.60;;
70420;SDS011;57848;51.938;15.520;2023-04-03T10:54:12;5.15;;;1.08;;
70420;SDS011;57848;51.938;15.520;2023-04-03T10:56:47;5.18;;;1.50;;
70420;SDS011;57848;51.938;15.520;2023-04-03T11:01:53;7.68;;;1.50;;
70420;SDS011;57848;51.938;15.520;2023-04-03T11:04:23;6.27;;;0.93;;
70420;SDS011;57848;51.938;15.520;2023-04-03T11:07:07;5.47;;;1.52;;
70420;SDS011;57848;51.938;15.520;2023-04-03T11:09:39;7.15;;;1.80;;
70420;SDS011;57848;51.938;15.520;2023-04-03T11:12:11;5.43;;;1.88;;
70420;SDS011;57848;51.938;15.520;2023-04-03T11:14:40;5.10;;;1.70;;
70420;SDS011;57848;51.938;15.520;2023-04-03T11:17:11;6.50;;;1.50;;
70420;SDS011;57848;51.938;15.520;2023-04-03T11:22:35;5.57;;;1.77;;
70420;SDS011;57848;51.938;15.520;2023-04-03T11:27:42;5.90;;;1.43;;
70420;SDS011;57848;51.938;15.520;2023-04-03T11:30:55;6.20;;;1.92;;
70420;SDS011;57848;51.938;15.520;2023-04-03T11:36:24;4.88;;;1.30;;
70420;SDS011;57848;51.938;15.520;2023-04-03T11:38:56;7.20;;;1.35;;
70420;SDS011;57848;51.938;15.520;2023-04-03T11:41:26;7.07;;;1.70;;
70420;SDS011;57848;51.938;15.520;2023-04-03T11:44:00;9.23;;;2.10;;
70420;SDS011;57848;51.938;15.520;2023-04-03T11:52:53;6.78;;;1.58;;
70420;SDS011;57848;51.938;15.520;2023-04-03T11:58:02;7.57;;;1.55;;
70420;SDS011;57848;51.938;15.520;2023-04-03T12:05:56;13.70;;;3.80;;
70420;SDS011;57848;51.938;15.520;2023-04-03T12:22:04;5.80;;;1.53;;
70420;SDS011;57848;51.938;15.520;2023-04-03T12:34:39;6.50;;;1.33;;
70420;SDS011;57848;51.938;15.520;2023-04-03T12:39:52;5.72;;;1.48;;
70420;SDS011;57848;51.938;15.520;2023-04-03T12:45:43;5.13;;;1.27;;
70420;SDS011;57848;51.938;15.520;2023-04-03T12:48:15;6.77;;;1.40;;
70420;SDS011;57848;51.938;15.520;2023-04-03T12:50:43;7.50;;;1.52;;
70420;SDS011;57848;51.938;15.520;2023-04-03T12:53:12;5.32;;;1.35;;
70420;SDS011;57848;51.938;15.520;2023-04-03T12:55:42;5.82;;;1.20;;
70420;SDS011;57848;51.938;15.520;2023-04-03T12:58:24;5.10;;;1.30;;
70420;SDS011;57848;51.938;15.520;2023-04-03T13:01:02;5.72;;;1.17;;
70420;SDS011;57848;51.938;15.520;2023-04-03T13:03:28;4.47;;;1.17;;
70420;SDS011;57848;51.938;15.520;2023-04-03T13:05:56;6.70;;;1.33;;
70420;SDS011;57848;51.938;15.520;2023-04-03T13:08:24;7.85;;;2.00;;
70420;SDS011;57848;51.938;15.520;2023-04-03T13:10:51;8.20;;;1.60;;
70420;SDS011;57848;51.938;15.520;2023-04-03T13:13:20;11.47;;;4.83;;
70420;SDS011;57848;51.938;15.520;2023-04-03T13:15:46;11.68;;;4.32;;
70420;SDS011;57848;51.938;15.520;2023-04-03T13:21:00;5.60;;;1.30;;
70420;SDS011;57848;51.938;15.520;2023-04-03T13:23:28;7.78;;;2.60;;
70420;SDS011;57848;51.938;15.520;2023-04-03T13:25:56;6.60;;;1.38;;
70420;SDS011;57848;51.938;15.520;2023-04-03T13:28:26;6.30;;;1.75;;
70420;SDS011;57848;51.938;15.520;2023-04-03T13:33:45;8.13;;;2.07;;
70420;SDS011;57848;51.938;15.520;2023-04-03T13:36:41;6.38;;;1.83;;
70420;SDS011;57848;51.938;15.520;2023-04-03T13:41:36;7.97;;;1.97;;
70420;SDS011;57848;51.938;15.520;2023-04-03T13:52:24;7.30;;;1.40;;
70420;SDS011;57848;51.938;15.520;2023-04-03T13:54:58;6.97;;;1.63;;
70420;SDS011;57848;51.938;15.520;2023-04-03T13:57:26;4.45;;;1.33;;
70420;SDS011;57848;51.938;15.520;2023-04-03T13:59:52;8.77;;;2.13;;
70420;SDS011;57848;51.938;15.520;2023-04-03T14:02:31;7.10;;;1.53;;
70420;SDS011;57848;51.938;15.520;2023-04-03T14:04:59;7.38;;;1.65;;
70420;SDS011;57848;51.938;15.520;2023-04-03T14:07:26;4.97;;;1.23;;
70420;SDS011;57848;51.938;15.520;2023-04-03T14:09:54;8.30;;;1.60;;
70420;SDS011;57848;51.938;15.520;2023-04-03T14:12:33;8.53;;;2.03;;
70420;SDS011;57848;51.938;15.520;2023-04-03T14:15:01;12.13;;;3.17;;
70420;SDS011;57848;51.938;15.520;2023-04-03T14:17:29;7.63;;;1.80;;
70420;SDS011;57848;51.938;15.520;2023-04-03T14:19:56;8.27;;;1.85;;
70420;SDS011;57848;51.938;15.520;2023-04-03T14:24:50;6.67;;;1.57;;
70420;SDS011;57848;51.938;15.520;2023-04-03T14:27:21;7.40;;;1.52;;
70420;SDS011;57848;51.938;15.520;2023-04-03T14:29:52;6.13;;;1.58;;
70420;SDS011;57848;51.938;15.520;2023-04-03T14:32:19;5.30;;;1.27;;
70420;SDS011;57848;51.938;15.520;2023-04-03T14:34:45;5.25;;;1.48;;
70420;SDS011;57848;51.938;15.520;2023-04-03T14:37:13;7.77;;;1.87;;
70420;SDS011;57848;51.938;15.520;2023-04-03T14:39:40;9.38;;;2.40;;
70420;SDS011;57848;51.938;15.520;2023-04-03T14:42:10;9.30;;;2.50;;
70420;SDS011;57848;51.938;15.520;2023-04-03T14:44:37;6.82;;;1.50;;
70420;SDS011;57848;51.938;15.520;2023-04-03T14:47:03;12.80;;;2.60;;
70420;SDS011;57848;51.938;15.520;2023-04-03T14:49:29;6.28;;;1.50;;
70420;SDS011;57848;51.938;15.520;2023-04-03T14:51:55;8.33;;;1.57;;
70420;SDS011;57848;51.938;15.520;2023-04-03T14:54:22;10.20;;;3.58;;
70420;SDS011;57848;51.938;15.520;2023-04-03T14:56:52;7.65;;;2.60;;
70420;SDS011;57848;51.938;15.520;2023-04-03T14:59:18;4.93;;;1.17;;
70420;SDS011;57848;51.938;15.520;2023-04-03T15:01:46;6.63;;;1.90;;
70420;SDS011;57848;51.938;15.520;2023-04-03T15:04:13;8.43;;;2.20;;
70420;SDS011;57848;51.938;15.520;2023-04-03T15:06:40;10.90;;;2.30;;
70420;SDS011;57848;51.938;15.520;2023-04-03T15:09:26;7.60;;;2.30;;
70420;SDS011;57848;51.938;15.520;2023-04-03T15:11:53;9.75;;;1.52;;
70420;SDS011;57848;51.938;15.520;2023-04-03T15:14:21;6.65;;;1.40;;
70420;SDS011;57848;51.938;15.520;2023-04-03T15:16:47;6.50;;;1.67;;
70420;SDS011;57848;51.938;15.520;2023-04-03T15:19:13;7.32;;;2.10;;
70420;SDS011;57848;51.938;15.520;2023-04-03T15:21:39;13.63;;;3.15;;
70420;SDS011;57848;51.938;15.520;2023-04-03T15:24:05;12.15;;;2.90;;
70420;SDS011;57848;51.938;15.520;2023-04-03T15:26:31;14.80;;;3.37;;
70420;SDS011;57848;51.938;15.520;2023-04-03T15:28:57;11.80;;;2.63;;
70420;SDS011;57848;51.938;15.520;2023-04-03T15:31:22;12.87;;;3.07;;
70420;SDS011;57848;51.938;15.520;2023-04-03T15:33:48;10.30;;;2.40;;
70420;SDS011;57848;51.938;15.520;2023-04-03T15:36:13;12.13;;;3.10;;
70420;SDS011;57848;51.938;15.520;2023-04-03T15:38:38;10.67;;;2.30;;
70420;SDS011;57848;51.938;15.520;2023-04-03T15:41:04;17.87;;;4.23;;
70420;SDS011;57848;51.938;15.520;2023-04-03T15:43:30;12.07;;;3.67;;
70420;SDS011;57848;51.938;15.520;2023-04-03T15:45:56;16.33;;;5.77;;
70420;SDS011;57848;51.938;15.520;2023-04-03T15:48:23;10.35;;;3.30;;
70420;SDS011;57848;51.938;15.520;2023-04-03T15:50:49;6.60;;;2.50;;
70420;SDS011;57848;51.938;15.520;2023-04-03T15:53:15;7.80;;;1.90;;
70420;SDS011;57848;51.938;15.520;2023-04-03T15:55:40;9.70;;;2.73;;
70420;SDS011;57848;51.938;15.520;2023-04-03T15:58:06;11.38;;;2.72;;
70420;SDS011;57848;51.938;15.520;2023-04-03T16:00:31;10.27;;;2.95;;
70420;SDS011;57848;51.938;15.520;2023-04-03T16:02:59;10.23;;;2.70;;
70420;SDS011;57848;51.938;15.520;2023-04-03T16:05:29;7.15;;;2.10;;
70420;SDS011;57848;51.938;15.520;2023-04-03T16:07:55;6.40;;;1.52;;
70420;SDS011;57848;51.938;15.520;2023-04-03T16:10:23;6.22;;;1.75;;
70420;SDS011;57848;51.938;15.520;2023-04-03T16:12:48;6.67;;;2.00;;
70420;SDS011;57848;51.938;15.520;2023-04-03T16:15:13;9.13;;;2.40;;
70420;SDS011;57848;51.938;15.520;2023-04-03T16:17:39;9.52;;;2.63;;
70420;SDS011;57848;51.938;15.520;2023-04-03T16:20:08;7.30;;;2.20;;
70420;SDS011;57848;51.938;15.520;2023-04-03T16:22:36;9.02;;;2.03;;
70420;SDS011;57848;51.938;15.520;2023-04-03T16:25:02;9.55;;;2.30;;
70420;SDS011;57848;51.938;15.520;2023-04-03T16:27:29;10.02;;;3.10;;
70420;SDS011;57848;51.938;15.520;2023-04-03T16:29:56;19.00;;;5.70;;
70420;SDS011;57848;51.938;15.520;2023-04-03T16:32:22;15.33;;;5.37;;
70420;SDS011;57848;51.938;15.520;2023-04-03T16:34:49;7.80;;;3.45;;